sensor_id;sensor_type;location;lat;lon;timestamp;pressure;altitude;pressure_sealevel;temperature;humidity
60970;BME280;46841;48.938;9.502;2023-10-19T00:00:56;96904.91;;;10.39;91.37
60970;BME280;46841;48.938;9.502;2023-10-19T00:03:23;96904.94;;;10.59;90.88
60970;BME280;46841;48.938;9.502;2023-10-19T00:05:49;96912.03;;;10.54;90.54
60970;BME280;46841;48.938;9.502;2023-10-19T00:08:15;96912.00;;;10.39;90.78
60970;BME280;46841;48.938;9.502;2023-10-19T00:10:45;96914.69;;;10.39;90.48
60970;BME280;46841;48.938;9.502;2023-10-19T00:13:14;96906.72;;;10.45;90.40
60970;BME280;46841;48.938;9.502;2023-10-19T00:15:41;96912.94;;;10.45;89.93
60970;BME280;46841;48.938;9.502;2023-10-19T00:18:12;96903.16;;;10.46;90.00
60970;BME280;46841;48.938;9.502;2023-10-19T00:20:44;96911.13;;;10.34;89.61
60970;BME280;46841;48.938;9.502;2023-10-19T00:23:13;96909.34;;;10.33;90.23
60970;BME280;46841;48.938;9.502;2023-10-19T00:25:42;96912.94;;;10.30;90.72
60970;BME280;46841;48.938;9.502;2023-10-19T00:28:08;96906.69;;;10.37;90.23
60970;BME280;46841;48.938;9.502;2023-10-19T00:30:34;96895.13;;;10.29;90.55
60970;BME280;46841;48.938;9.502;2023-10-19T00:33:02;96905.81;;;10.32;90.74
60970;BME280;46841;48.938;9.502;2023-10-19T00:35:41;96901.34;;;10.28;90.60
60970;BME280;46841;48.938;9.502;2023-10-19T00:38:13;96904.00;;;10.25;91.38
60970;BME280;46841;48.938;9.502;2023-10-19T00:40:50;96904.03;;;10.31;91.04
60970;BME280;46841;48.938;9.502;2023-10-19T00:43:31;96894.25;;;10.30;91.15
60970;BME280;46841;48.938;9.502;2023-10-19T00:46:09;96896.91;;;10.33;91.23
60970;BME280;46841;48.938;9.502;2023-10-19T00:48:54;96888.88;;;10.19;91.49
60970;BME280;46841;48.938;9.502;2023-10-19T00:51:27;96891.56;;;10.28;91.47
60970;BME280;46841;48.938;9.502;2023-10-19T00:54:09;96886.25;;;10.39;91.39
60970;BME280;46841;48.938;9.502;2023-10-19T00:56:43;96889.81;;;10.35;90.94
60970;BME280;46841;48.938;9.502;2023-10-19T00:59:22;96892.50;;;10.35;91.25
60970;BME280;46841;48.938;9.502;2023-10-19T01:01:53;96878.25;;;10.35;91.42
60970;BME280;46841;48.938;9.502;2023-10-19T01:04:20;96885.38;;;10.40;91.32
60970;BME280;46841;48.938;9.502;2023-10-19T01:06:48;96888.03;;;10.49;91.37
60970;BME280;46841;48.938;9.502;2023-10-19T01:09:30;96865.81;;;10.43;91.54
60970;BME280;46841;48.938;9.502;2023-10-19T01:12:01;96869.38;;;10.51;91.82
60970;BME280;46841;48.938;9.502;2023-10-19T01:14:32;96856.94;;;10.45;91.93
60970;BME280;46841;48.938;9.502;2023-10-19T01:16:59;96857.81;;;10.50;92.13
60970;BME280;46841;48.938;9.502;2023-10-19T01:19:26;96851.56;;;10.58;91.94
60970;BME280;46841;48.938;9.502;2023-10-19T01:21:53;96840.94;;;10.51;92.08
60970;BME280;46841;48.938;9.502;2023-10-19T01:24:24;96844.47;;;10.63;92.06
60970;BME280;46841;48.938;9.502;2023-10-19T01:27:10;96844.47;;;10.60;91.81
60970;BME280;46841;48.938;9.502;2023-10-19T01:29:36;96844.47;;;10.63;92.03
60970;BME280;46841;48.938;9.502;2023-10-19T01:32:04;96826.66;;;10.63;92.14
60970;BME280;46841;48.938;9.502;2023-10-19T01:34:34;96821.34;;;10.66;92.42
60970;BME280;46841;48.938;9.502;2023-10-19T01:37:01;96818.66;;;10.77;92.26
60970;BME280;46841;48.938;9.502;2023-10-19T01:39:34;96824.88;;;10.73;92.35
60970;BME280;46841;48.938;9.502;2023-10-19T01:42:04;96814.16;;;10.87;92.16
60970;BME280;46841;48.938;9.502;2023-10-19T01:44:30;96809.72;;;10.90;92.48
60970;BME280;46841;48.938;9.502;2023-10-19T01:46:56;96813.28;;;10.94;92.34
60970;BME280;46841;48.938;9.502;2023-10-19T01:49:22;96806.13;;;11.00;92.53
60970;BME280;46841;48.938;9.502;2023-10-19T01:51:55;96801.66;;;11.10;92.49
60970;BME280;46841;48.938;9.502;2023-10-19T01:54:22;96798.06;;;11.17;92.42
60970;BME280;46841;48.938;9.502;2023-10-19T01:56:54;96791.81;;;11.20;92.28
60970;BME280;46841;48.938;9.502;2023-10-19T01:59:27;96799.75;;;11.30;92.23
60970;BME280;46841;48.938;9.502;2023-10-19T02:01:54;96793.53;;;11.35;92.09
60970;BME280;46841;48.938;9.502;2023-10-19T02:04:21;96793.50;;;11.39;92.12
60970;BME280;46841;48.938;9.502;2023-10-19T02:06:47;96794.34;;;11.44;92.46
60970;BME280;46841;48.938;9.502;2023-10-19T02:09:14;96788.09;;;11.51;91.96
60970;BME280;46841;48.938;9.502;2023-10-19T02:11:53;96786.25;;;11.63;92.43
60970;BME280;46841;48.938;9.502;2023-10-19T02:14:21;96786.25;;;11.63;92.07
60970;BME280;46841;48.938;9.502;2023-10-19T02:16:48;96784.47;;;11.62;92.39
60970;BME280;46841;48.938;9.502;2023-10-19T02:19:19;96775.56;;;11.63;92.28
60970;BME280;46841;48.938;9.502;2023-10-19T02:21:47;96775.50;;;11.75;92.31
60970;BME280;46841;48.938;9.502;2023-10-19T02:24:14;96763.88;;;11.77;92.17
60970;BME280;46841;48.938;9.502;2023-10-19T02:26:40;96764.75;;;11.81;92.49
60970;BME280;46841;48.938;9.502;2023-10-19T02:29:07;96758.53;;;11.82;92.58
60970;BME280;46841;48.938;9.502;2023-10-19T02:31:34;96748.66;;;11.95;92.25
60970;BME280;46841;48.938;9.502;2023-10-19T02:34:03;96743.22;;;12.02;92.27
60970;BME280;46841;48.938;9.502;2023-10-19T02:36:30;96736.16;;;11.95;92.35
60970;BME280;46841;48.938;9.502;2023-10-19T02:38:59;96738.78;;;12.03;92.46
60970;BME280;46841;48.938;9.502;2023-10-19T02:41:26;96732.59;;;11.98;92.48
60970;BME280;46841;48.938;9.502;2023-10-19T02:43:53;96732.50;;;12.05;92.44
60970;BME280;46841;48.938;9.502;2023-10-19T02:46:34;96729.88;;;12.04;92.02
60970;BME280;46841;48.938;9.502;2023-10-19T02:49:03;96732.50;;;12.05;92.46
60970;BME280;46841;48.938;9.502;2023-10-19T02:51:33;96729.00;;;12.00;92.38
60970;BME280;46841;48.938;9.502;2023-10-19T02:53:59;96735.28;;;11.98;92.50
60970;BME280;46841;48.938;9.502;2023-10-19T02:56:28;96727.19;;;12.02;92.49
60970;BME280;46841;48.938;9.502;2023-10-19T02:58:56;96728.13;;;11.98;92.55
60970;BME280;46841;48.938;9.502;2023-10-19T03:01:30;96717.44;;;11.97;93.00
60970;BME280;46841;48.938;9.502;2023-10-19T03:04:00;96720.97;;;12.02;93.13
60970;BME280;46841;48.938;9.502;2023-10-19T03:06:27;96720.09;;;12.03;92.92
60970;BME280;46841;48.938;9.502;2023-10-19T03:09:04;96718.38;;;11.91;92.69
60970;BME280;46841;48.938;9.502;2023-10-19T03:11:30;96723.66;;;12.00;93.12
60970;BME280;46841;48.938;9.502;2023-10-19T03:14:00;96728.09;;;12.01;93.01
60970;BME280;46841;48.938;9.502;2023-10-19T03:16:26;96727.19;;;12.02;93.01
60970;BME280;46841;48.938;9.502;2023-10-19T03:18:56;96731.66;;;12.00;92.96
60970;BME280;46841;48.938;9.502;2023-10-19T03:21:21;96725.41;;;12.04;92.99
60970;BME280;46841;48.938;9.502;2023-10-19T03:23:53;96723.78;;;11.88;92.97
60970;BME280;46841;48.938;9.502;2023-10-19T03:26:18;96730.91;;;11.83;92.60
60970;BME280;46841;48.938;9.502;2023-10-19T03:29:02;96721.16;;;11.73;92.86
60970;BME280;46841;48.938;9.502;2023-10-19T03:31:39;96710.63;;;11.56;93.00
60970;BME280;46841;48.938;9.502;2023-10-19T03:34:16;96721.28;;;11.59;92.85
60970;BME280;46841;48.938;9.502;2023-10-19T03:36:44;96710.69;;;11.50;93.15
60970;BME280;46841;48.938;9.502;2023-10-19T03:39:10;96701.97;;;11.22;93.38
60970;BME280;46841;48.938;9.502;2023-10-19T03:41:41;96698.38;;;11.24;93.71
60970;BME280;46841;48.938;9.502;2023-10-19T03:44:09;96701.16;;;11.08;93.69
60970;BME280;46841;48.938;9.502;2023-10-19T03:46:54;96700.31;;;10.92;93.72
60970;BME280;46841;48.938;9.502;2023-10-19T03:49:25;96701.28;;;10.80;93.44
60970;BME280;46841;48.938;9.502;2023-10-19T03:51:55;96703.06;;;10.79;93.68
60970;BME280;46841;48.938;9.502;2023-10-19T03:54:25;96705.72;;;10.76;93.61
60970;BME280;46841;48.938;9.502;2023-10-19T03:56:52;96701.34;;;10.63;93.83
60970;BME280;46841;48.938;9.502;2023-10-19T03:59:18;96690.69;;;10.59;93.45
60970;BME280;46841;48.938;9.502;2023-10-19T04:01:45;96685.34;;;10.62;94.02
60970;BME280;46841;48.938;9.502;2023-10-19T04:04:10;96692.53;;;10.38;94.12
60970;BME280;46841;48.938;9.502;2023-10-19T04:06:36;96684.56;;;10.32;94.16
60970;BME280;46841;48.938;9.502;2023-10-19T04:09:05;96681.91;;;10.21;94.16
60970;BME280;46841;48.938;9.502;2023-10-19T04:11:32;96681.00;;;10.33;94.95
60970;BME280;46841;48.938;9.502;2023-10-19T04:13:59;96675.69;;;10.15;94.50
60970;BME280;46841;48.938;9.502;2023-10-19T04:16:29;96673.94;;;10.06;94.51
60970;BME280;46841;48.938;9.502;2023-10-19T04:18:56;96673.03;;;10.09;94.92
60970;BME280;46841;48.938;9.502;2023-10-19T04:21:23;96663.28;;;10.08;94.66
60970;BME280;46841;48.938;9.502;2023-10-19T04:23:48;96667.72;;;10.27;95.15
60970;BME280;46841;48.938;9.502;2023-10-19T04:26:14;96671.28;;;10.06;94.79
60970;BME280;46841;48.938;9.502;2023-10-19T04:28:43;96660.59;;;10.12;95.10
60970;BME280;46841;48.938;9.502;2023-10-19T04:31:16;96655.28;;;10.05;95.33
60970;BME280;46841;48.938;9.502;2023-10-19T04:33:43;96649.06;;;10.13;94.88
60970;BME280;46841;48.938;9.502;2023-10-19T04:36:12;96642.88;;;10.02;95.16
60970;BME280;46841;48.938;9.502;2023-10-19T04:38:37;96642.00;;;9.86;94.81
60970;BME280;46841;48.938;9.502;2023-10-19T04:41:12;96637.59;;;9.79;95.09
60970;BME280;46841;48.938;9.502;2023-10-19T04:43:38;96643.81;;;9.83;95.10
60970;BME280;46841;48.938;9.502;2023-10-19T04:46:06;96634.91;;;9.84;95.09
60970;BME280;46841;48.938;9.502;2023-10-19T04:48:34;96641.13;;;9.76;95.08
60970;BME280;46841;48.938;9.502;2023-10-19T04:51:01;96638.47;;;9.81;94.89
60970;BME280;46841;48.938;9.502;2023-10-19T04:53:30;96644.69;;;9.80;95.14
60970;BME280;46841;48.938;9.502;2023-10-19T04:55:55;96638.50;;;9.64;95.08
60970;BME280;46841;48.938;9.502;2023-10-19T04:58:21;96643.84;;;9.58;94.78
60970;BME280;46841;48.938;9.502;2023-10-19T05:00:46;96639.41;;;9.49;94.91
60970;BME280;46841;48.938;9.502;2023-10-19T05:03:12;96642.94;;;9.42;95.25
60970;BME280;46841;48.938;9.502;2023-10-19T05:05:44;96637.59;;;9.42;95.19
60970;BME280;46841;48.938;9.502;2023-10-19T05:08:09;96634.03;;;9.72;95.38
60970;BME280;46841;48.938;9.502;2023-10-19T05:10:34;96634.94;;;9.59;94.91
60970;BME280;46841;48.938;9.502;2023-10-19T05:13:00;96627.88;;;9.54;94.95
60970;BME280;46841;48.938;9.502;2023-10-19T05:15:25;96623.41;;;9.43;95.49
60970;BME280;46841;48.938;9.502;2023-10-19T05:17:51;96621.63;;;9.18;95.59
60970;BME280;46841;48.938;9.502;2023-10-19T05:20:16;96629.63;;;9.16;95.43
60970;BME280;46841;48.938;9.502;2023-10-19T05:22:42;96630.50;;;9.12;95.29
60970;BME280;46841;48.938;9.502;2023-10-19T05:25:07;96632.28;;;9.29;95.89
60970;BME280;46841;48.938;9.502;2023-10-19T05:27:33;96639.34;;;9.00;95.69
60970;BME280;46841;48.938;9.502;2023-10-19T05:30:00;96638.50;;;9.31;95.86
60970;BME280;46841;48.938;9.502;2023-10-19T05:32:25;96645.56;;;8.96;96.13
60970;BME280;46841;48.938;9.502;2023-10-19T05:34:51;96642.03;;;9.13;96.13
60970;BME280;46841;48.938;9.502;2023-10-19T05:37:16;96650.84;;;8.90;96.07
60970;BME280;46841;48.938;9.502;2023-10-19T05:39:43;96638.44;;;8.89;96.12
60970;BME280;46841;48.938;9.502;2023-10-19T05:42:09;96645.59;;;9.06;95.94
60970;BME280;46841;48.938;9.502;2023-10-19T05:44:35;96649.09;;;9.00;96.19
60970;BME280;46841;48.938;9.502;2023-10-19T05:47:00;96646.47;;;9.06;96.53
60970;BME280;46841;48.938;9.502;2023-10-19T05:49:26;96642.03;;;9.04;96.50
60970;BME280;46841;48.938;9.502;2023-10-19T05:51:51;96643.75;;;8.89;96.44
60970;BME280;46841;48.938;9.502;2023-10-19T05:54:17;96653.53;;;8.99;96.36
60970;BME280;46841;48.938;9.502;2023-10-19T05:56:43;96653.53;;;8.96;96.26
60970;BME280;46841;48.938;9.502;2023-10-19T05:59:09;96660.59;;;8.85;96.18
60970;BME280;46841;48.938;9.502;2023-10-19T06:01:36;96662.34;;;8.79;96.16
60970;BME280;46841;48.938;9.502;2023-10-19T06:04:03;96665.03;;;8.79;96.41
60970;BME280;46841;48.938;9.502;2023-10-19T06:06:30;96662.38;;;8.85;96.48
60970;BME280;46841;48.938;9.502;2023-10-19T06:08:55;96664.19;;;9.07;96.46
60970;BME280;46841;48.938;9.502;2023-10-19T06:11:21;96667.78;;;9.26;96.14
60970;BME280;46841;48.938;9.502;2023-10-19T06:13:47;96668.66;;;9.16;96.05
60970;BME280;46841;48.938;9.502;2023-10-19T06:16:13;96668.66;;;9.16;96.11
60970;BME280;46841;48.938;9.502;2023-10-19T06:18:39;96661.56;;;9.21;96.36
60970;BME280;46841;48.938;9.502;2023-10-19T06:21:05;96652.66;;;9.14;96.19
60970;BME280;46841;48.938;9.502;2023-10-19T06:23:30;96661.53;;;9.13;96.16
60970;BME280;46841;48.938;9.502;2023-10-19T06:25:57;96652.69;;;9.31;95.86
60970;BME280;46841;48.938;9.502;2023-10-19T06:28:22;96646.47;;;9.38;96.14
60970;BME280;46841;48.938;9.502;2023-10-19T06:30:48;96651.81;;;9.41;95.67
60970;BME280;46841;48.938;9.502;2023-10-19T06:33:13;96666.91;;;9.44;95.89
60970;BME280;46841;48.938;9.502;2023-10-19T06:35:39;96662.44;;;9.37;95.70
60970;BME280;46841;48.938;9.502;2023-10-19T06:38:06;96670.44;;;9.35;96.04
60970;BME280;46841;48.938;9.502;2023-10-19T06:40:34;96664.22;;;9.42;95.74
60970;BME280;46841;48.938;9.502;2023-10-19T06:43:01;96662.47;;;9.50;95.55
60970;BME280;46841;48.938;9.502;2023-10-19T06:45:28;96663.34;;;9.60;95.37
60970;BME280;46841;48.938;9.502;2023-10-19T06:47:57;96660.66;;;9.71;95.49
60970;BME280;46841;48.938;9.502;2023-10-19T06:50:23;96658.88;;;9.85;95.04
60970;BME280;46841;48.938;9.502;2023-10-19T06:52:51;96649.06;;;10.01;95.25
60970;BME280;46841;48.938;9.502;2023-10-19T06:55:18;96652.59;;;10.14;94.94
60970;BME280;46841;48.938;9.502;2023-10-19T06:57:50;96655.25;;;10.11;94.31
60970;BME280;46841;48.938;9.502;2023-10-19T07:00:18;96656.13;;;10.22;94.10
60970;BME280;46841;48.938;9.502;2023-10-19T07:02:48;96655.22;;;10.41;94.11
60970;BME280;46841;48.938;9.502;2023-10-19T07:05:14;96652.50;;;10.52;93.95
60970;BME280;46841;48.938;9.502;2023-10-19T07:07:44;96649.84;;;10.49;93.34
60970;BME280;46841;48.938;9.502;2023-10-19T07:10:11;96650.69;;;10.65;93.23
60970;BME280;46841;48.938;9.502;2023-10-19T07:12:58;96646.13;;;10.85;93.03
60970;BME280;46841;48.938;9.502;2023-10-19T07:15:23;96647.88;;;10.89;92.82
60970;BME280;46841;48.938;9.502;2023-10-19T07:17:51;96647.88;;;10.92;92.52
60970;BME280;46841;48.938;9.502;2023-10-19T07:20:23;96645.09;;;11.06;92.34
60970;BME280;46841;48.938;9.502;2023-10-19T07:22:59;96642.41;;;11.12;92.15
60970;BME280;46841;48.938;9.502;2023-10-19T07:25:28;96645.09;;;11.12;91.75
60970;BME280;46841;48.938;9.502;2023-10-19T07:27:54;96649.50;;;11.18;91.80
60970;BME280;46841;48.938;9.502;2023-10-19T07:30:21;96638.84;;;11.16;91.78
60970;BME280;46841;48.938;9.502;2023-10-19T07:32:50;96639.75;;;11.12;91.83
60970;BME280;46841;48.938;9.502;2023-10-19T07:35:22;96630.78;;;11.19;92.03
60970;BME280;46841;48.938;9.502;2023-10-19T07:37:48;96641.41;;;11.27;91.98
60970;BME280;46841;48.938;9.502;2023-10-19T07:40:15;96636.06;;;11.28;91.76
60970;BME280;46841;48.938;9.502;2023-10-19T07:42:40;96638.69;;;11.36;91.72
60970;BME280;46841;48.938;9.502;2023-10-19T07:45:08;96646.59;;;11.47;91.98
60970;BME280;46841;48.938;9.502;2023-10-19T07:47:40;96636.81;;;11.44;92.05
60970;BME280;46841;48.938;9.502;2023-10-19T07:50:10;96638.41;;;11.70;92.09
60970;BME280;46841;48.938;9.502;2023-10-19T07:52:42;96632.91;;;11.87;91.56
60970;BME280;46841;48.938;9.502;2023-10-19T07:55:09;96628.19;;;12.15;91.43
60970;BME280;46841;48.938;9.502;2023-10-19T07:57:35;96642.19;;;12.38;91.18
60970;BME280;46841;48.938;9.502;2023-10-19T08:00:01;96625.03;;;12.54;90.51
60970;BME280;46841;48.938;9.502;2023-10-19T08:02:26;96622.13;;;12.74;90.01
60970;BME280;46841;48.938;9.502;2023-10-19T08:04:54;96624.59;;;12.88;89.81
60970;BME280;46841;48.938;9.502;2023-10-19T08:07:19;96628.78;;;13.07;89.33
60970;BME280;46841;48.938;9.502;2023-10-19T08:09:44;96615.13;;;13.29;89.01
60970;BME280;46841;48.938;9.502;2023-10-19T08:12:10;96616.06;;;13.25;88.61
60970;BME280;46841;48.938;9.502;2023-10-19T08:14:39;96619.19;;;13.53;88.73
60970;BME280;46841;48.938;9.502;2023-10-19T08:17:04;96611.66;;;13.76;88.31
60970;BME280;46841;48.938;9.502;2023-10-19T08:19:30;96615.44;;;14.14;87.71
60970;BME280;46841;48.938;9.502;2023-10-19T08:21:56;96613.53;;;14.66;86.59
60970;BME280;46841;48.938;9.502;2023-10-19T08:24:23;96602.03;;;14.99;85.33
60970;BME280;46841;48.938;9.502;2023-10-19T08:26:48;96603.84;;;15.39;85.47
60970;BME280;46841;48.938;9.502;2023-10-19T08:29:16;96606.53;;;15.39;84.50
60970;BME280;46841;48.938;9.502;2023-10-19T08:31:42;96597.00;;;15.97;83.44
60970;BME280;46841;48.938;9.502;2023-10-19T08:34:12;96590.34;;;16.43;83.79
60970;BME280;46841;48.938;9.502;2023-10-19T08:36:38;96590.34;;;16.43;83.74
60970;BME280;46841;48.938;9.502;2023-10-19T08:39:07;96592.44;;;16.33;82.80
60970;BME280;46841;48.938;9.502;2023-10-19T08:41:35;96590.50;;;16.38;83.52
60970;BME280;46841;48.938;9.502;2023-10-19T08:44:05;96589.59;;;16.38;83.76
60970;BME280;46841;48.938;9.502;2023-10-19T08:46:44;96589.94;;;16.58;82.91
60970;BME280;46841;48.938;9.502;2023-10-19T08:49:14;96585.81;;;16.78;83.17
60970;BME280;46841;48.938;9.502;2023-10-19T08:51:44;96590.47;;;17.01;81.38
60970;BME280;46841;48.938;9.502;2023-10-19T08:54:13;96587.03;;;16.97;80.79
60970;BME280;46841;48.938;9.502;2023-10-19T08:56:40;96582.97;;;17.94;80.34
60970;BME280;46841;48.938;9.502;2023-10-19T08:59:13;96587.47;;;18.70;77.26
60970;BME280;46841;48.938;9.502;2023-10-19T09:01:41;96585.53;;;19.43;73.88
60970;BME280;46841;48.938;9.502;2023-10-19T09:04:11;96582.81;;;19.88;71.70
60970;BME280;46841;48.938;9.502;2023-10-19T09:06:39;96582.06;;;19.85;71.72
60970;BME280;46841;48.938;9.502;2023-10-19T09:09:12;96586.00;;;19.98;71.11
60970;BME280;46841;48.938;9.502;2023-10-19T09:11:51;96583.38;;;20.17;70.04
60970;BME280;46841;48.938;9.502;2023-10-19T09:14:46;96578.22;;;20.11;70.63
60970;BME280;46841;48.938;9.502;2023-10-19T09:17:11;96569.31;;;20.29;66.81
60970;BME280;46841;48.938;9.502;2023-10-19T09:19:39;96568.53;;;19.63;69.29
60970;BME280;46841;48.938;9.502;2023-10-19T09:22:06;96562.88;;;19.23;68.43
60970;BME280;46841;48.938;9.502;2023-10-19T09:24:43;96561.44;;;19.59;66.77
60970;BME280;46841;48.938;9.502;2023-10-19T09:27:08;96556.31;;;20.58;63.50
60970;BME280;46841;48.938;9.502;2023-10-19T09:29:33;96555.28;;;21.18;61.71
60970;BME280;46841;48.938;9.502;2023-10-19T09:31:59;96547.72;;;20.87;60.61
60970;BME280;46841;48.938;9.502;2023-10-19T09:34:30;96543.16;;;21.63;58.40
60970;BME280;46841;48.938;9.502;2023-10-19T09:37:03;96544.16;;;21.80;57.69
60970;BME280;46841;48.938;9.502;2023-10-19T09:39:32;96536.63;;;22.38;55.78
60970;BME280;46841;48.938;9.502;2023-10-19T09:42:08;96534.09;;;21.99;56.01
60970;BME280;46841;48.938;9.502;2023-10-19T09:44:48;96538.09;;;22.28;55.24
60970;BME280;46841;48.938;9.502;2023-10-19T09:47:26;96540.63;;;22.48;55.26
60970;BME280;46841;48.938;9.502;2023-10-19T09:49:56;96544.75;;;22.56;53.97
60970;BME280;46841;48.938;9.502;2023-10-19T09:52:23;96544.16;;;22.33;55.24
60970;BME280;46841;48.938;9.502;2023-10-19T09:54:57;96533.56;;;21.92;55.19
60970;BME280;46841;48.938;9.502;2023-10-19T10:00:17;96537.84;;;21.62;57.95
60970;BME280;46841;48.938;9.502;2023-10-19T10:02:49;96534.53;;;21.55;57.98
60970;BME280;46841;48.938;9.502;2023-10-19T10:10:49;96532.69;;;20.61;59.00
60970;BME280;46841;48.938;9.502;2023-10-19T10:15:55;96522.38;;;21.98;55.83
60970;BME280;46841;48.938;9.502;2023-10-19T10:18:24;96528.78;;;21.80;55.14
60970;BME280;46841;48.938;9.502;2023-10-19T10:21:05;96511.59;;;22.49;53.83
60970;BME280;46841;48.938;9.502;2023-10-19T10:23:31;96524.19;;;20.88;56.99
60970;BME280;46841;48.938;9.502;2023-10-19T10:26:00;96510.75;;;20.47;57.20
60970;BME280;46841;48.938;9.502;2023-10-19T10:28:28;96508.94;;;20.27;59.87
60970;BME280;46841;48.938;9.502;2023-10-19T10:36:08;96514.59;;;20.21;59.33
60970;BME280;46841;48.938;9.502;2023-10-19T10:38:34;96511.56;;;20.08;59.59
60970;BME280;46841;48.938;9.502;2023-10-19T10:41:03;96502.06;;;20.39;60.18
60970;BME280;46841;48.938;9.502;2023-10-19T10:43:29;96500.16;;;20.41;60.73
60970;BME280;46841;48.938;9.502;2023-10-19T10:46:07;96505.72;;;20.38;59.03
60970;BME280;46841;48.938;9.502;2023-10-19T10:48:33;96499.59;;;19.93;59.49
60970;BME280;46841;48.938;9.502;2023-10-19T10:51:01;96504.91;;;20.15;58.97
60970;BME280;46841;48.938;9.502;2023-10-19T10:53:27;96503.50;;;20.27;59.32
60970;BME280;46841;48.938;9.502;2023-10-19T10:55:53;96506.81;;;20.54;58.30
60970;BME280;46841;48.938;9.502;2023-10-19T10:58:21;96507.88;;;20.70;58.11
60970;BME280;46841;48.938;9.502;2023-10-19T11:00:47;96512.25;;;20.73;56.87
60970;BME280;46841;48.938;9.502;2023-10-19T11:03:14;96515.03;;;20.71;57.68
60970;BME280;46841;48.938;9.502;2023-10-19T11:05:41;96506.09;;;20.69;56.96
60970;BME280;46841;48.938;9.502;2023-10-19T11:10:40;96507.00;;;20.29;57.71
60970;BME280;46841;48.938;9.502;2023-10-19T11:13:09;96506.75;;;19.74;60.16
60970;BME280;46841;48.938;9.502;2023-10-19T11:15:36;96506.66;;;19.54;59.70
60970;BME280;46841;48.938;9.502;2023-10-19T11:18:02;96508.53;;;19.73;60.49
60970;BME280;46841;48.938;9.502;2023-10-19T11:20:28;96512.81;;;19.57;61.31
60970;BME280;46841;48.938;9.502;2023-10-19T11:22:56;96510.19;;;19.78;60.80
60970;BME280;46841;48.938;9.502;2023-10-19T11:25:26;96511.41;;;19.70;62.14
60970;BME280;46841;48.938;9.502;2023-10-19T11:27:57;96512.53;;;19.43;62.34
60970;BME280;46841;48.938;9.502;2023-10-19T11:30:29;96513.03;;;19.75;61.89
60970;BME280;46841;48.938;9.502;2023-10-19T11:32:55;96517.69;;;18.82;64.70
60970;BME280;46841;48.938;9.502;2023-10-19T11:35:26;96515.47;;;19.15;64.00
60970;BME280;46841;48.938;9.502;2023-10-19T11:37:54;96519.59;;;19.02;63.96
60970;BME280;46841;48.938;9.502;2023-10-19T11:40:21;96521.75;;;19.15;64.71
60970;BME280;46841;48.938;9.502;2023-10-19T11:42:47;96520.50;;;19.02;64.79
60970;BME280;46841;48.938;9.502;2023-10-19T11:45:13;96518.38;;;18.63;66.57
60970;BME280;46841;48.938;9.502;2023-10-19T11:47:39;96522.41;;;18.28;70.30
60970;BME280;46841;48.938;9.502;2023-10-19T11:50:05;96517.44;;;17.91;71.16
60970;BME280;46841;48.938;9.502;2023-10-19T11:52:31;96520.19;;;17.63;75.59
60970;BME280;46841;48.938;9.502;2023-10-19T11:54:57;96523.03;;;17.32;73.47
60970;BME280;46841;48.938;9.502;2023-10-19T11:57:23;96519.91;;;17.17;75.61
60970;BME280;46841;48.938;9.502;2023-10-19T11:59:50;96522.59;;;17.17;73.59
60970;BME280;46841;48.938;9.502;2023-10-19T12:02:20;96529.13;;;17.10;73.15
60970;BME280;46841;48.938;9.502;2023-10-19T12:04:47;96530.44;;;16.97;75.96
60970;BME280;46841;48.938;9.502;2023-10-19T12:07:12;96527.09;;;16.89;77.24
60970;BME280;46841;48.938;9.502;2023-10-19T12:09:38;96526.72;;;16.73;80.08
60970;BME280;46841;48.938;9.502;2023-10-19T12:12:07;96515.38;;;16.60;79.54
60970;BME280;46841;48.938;9.502;2023-10-19T12:14:35;96512.50;;;16.66;81.47
60970;BME280;46841;48.938;9.502;2023-10-19T12:17:01;96509.19;;;16.57;81.09
60970;BME280;46841;48.938;9.502;2023-10-19T12:19:29;96504.75;;;16.26;82.36
60970;BME280;46841;48.938;9.502;2023-10-19T12:21:55;96507.75;;;16.15;82.36
60970;BME280;46841;48.938;9.502;2023-10-19T12:24:21;96506.81;;;16.16;83.17
60970;BME280;46841;48.938;9.502;2023-10-19T12:26:46;96492.63;;;16.11;83.62
60970;BME280;46841;48.938;9.502;2023-10-19T12:29:12;96494.75;;;16.00;82.21
60970;BME280;46841;48.938;9.502;2023-10-19T12:31:40;96495.88;;;15.92;81.99
60970;BME280;46841;48.938;9.502;2023-10-19T12:34:06;96487.00;;;15.88;83.13
60970;BME280;46841;48.938;9.502;2023-10-19T12:36:33;96480.00;;;15.81;84.09
60970;BME280;46841;48.938;9.502;2023-10-19T12:39:00;96476.69;;;15.73;84.89
60970;BME280;46841;48.938;9.502;2023-10-19T12:41:26;96465.94;;;15.71;84.64
60970;BME280;46841;48.938;9.502;2023-10-19T12:43:53;96475.06;;;15.65;85.28
60970;BME280;46841;48.938;9.502;2023-10-19T12:46:25;96467.88;;;15.66;85.63
60970;BME280;46841;48.938;9.502;2023-10-19T12:48:53;96457.94;;;15.70;86.12
60970;BME280;46841;48.938;9.502;2023-10-19T12:51:24;96462.34;;;15.72;86.02
60970;BME280;46841;48.938;9.502;2023-10-19T12:53:54;96457.81;;;15.74;86.66
60970;BME280;46841;48.938;9.502;2023-10-19T12:56:23;96466.09;;;15.98;84.97
60970;BME280;46841;48.938;9.502;2023-10-19T12:58:54;96450.00;;;16.27;84.15
60970;BME280;46841;48.938;9.502;2023-10-19T13:01:19;96446.22;;;16.33;83.89
60970;BME280;46841;48.938;9.502;2023-10-19T13:03:48;96456.53;;;16.19;84.23
60970;BME280;46841;48.938;9.502;2023-10-19T13:06:17;96447.34;;;15.96;84.31
60970;BME280;46841;48.938;9.502;2023-10-19T13:08:42;96440.34;;;15.89;84.83
60970;BME280;46841;48.938;9.502;2023-10-19T13:11:09;96443.34;;;15.78;85.62
60970;BME280;46841;48.938;9.502;2023-10-19T13:13:35;96440.03;;;15.69;84.93
60970;BME280;46841;48.938;9.502;2023-10-19T13:16:04;96452.56;;;15.70;84.92
60970;BME280;46841;48.938;9.502;2023-10-19T13:18:35;96455.41;;;15.63;85.78
60970;BME280;46841;48.938;9.502;2023-10-19T13:21:01;96461.84;;;15.56;86.29
60970;BME280;46841;48.938;9.502;2023-10-19T13:23:31;96444.19;;;15.48;86.15
60970;BME280;46841;48.938;9.502;2023-10-19T13:25:59;96436.13;;;15.48;86.65
60970;BME280;46841;48.938;9.502;2023-10-19T13:28:41;96434.31;;;15.48;86.36